Terminal Aerodrome Forecast
Issued by NWS Binghamton, NY

Home | Current Version | Previous Version | Text Only | Print | Product List | Glossary On
Versions: 1 2 3 4 5 6 7 8 9 10 11 12 13 14 15 16
434
FTUS41 KBGM 240540
TAFAVP
TAF
KAVP 240540Z 2406/2506 VRB03KT P6SM FEW090
     FM241600 32006KT P6SM FEW080
     FM250200 36004KT P6SM SCT100=

USA.gov is the U.S. government's official web portal to all federal, state and local government web resources and services.